createdAt,value
2022-12-25T00:00:48.636Z,0.00
2022-12-25T00:01:48.557Z,0.00
2022-12-25T00:02:48.659Z,0.00
2022-12-25T00:03:48.737Z,0.00
2022-12-25T00:04:48.529Z,0.00
2022-12-25T00:05:48.512Z,0.00
2022-12-25T00:06:48.516Z,0.00
2022-12-25T00:07:48.479Z,0.00
2022-12-25T00:08:48.501Z,0.00
2022-12-25T00:09:48.461Z,0.00
2022-12-25T00:10:48.467Z,0.00
2022-12-25T00:11:48.441Z,0.00
2022-12-25T00:12:48.453Z,0.00
2022-12-25T00:13:48.465Z,0.00
2022-12-25T00:14:48.482Z,0.00
2022-12-25T00:15:48.445Z,0.00
2022-12-25T00:16:48.487Z,0.00
2022-12-25T00:17:48.375Z,0.00
2022-12-25T00:18:48.382Z,0.00
2022-12-25T00:19:48.351Z,0.00
2022-12-25T00:20:48.380Z,0.00
2022-12-25T00:21:48.328Z,0.00
2022-12-25T00:22:48.338Z,0.00
2022-12-25T00:23:48.339Z,0.00
2022-12-25T00:24:48.322Z,0.00
2022-12-25T00:25:48.303Z,0.00
2022-12-25T00:26:48.313Z,0.00
2022-12-25T00:27:48.265Z,0.00
2022-12-25T00:28:48.272Z,0.00
2022-12-25T00:29:48.257Z,0.00
2022-12-25T00:30:48.244Z,0.00
2022-12-25T00:31:48.332Z,0.00
2022-12-25T00:32:48.231Z,0.00
2022-12-25T00:33:48.203Z,0.00
2022-12-25T00:34:48.212Z,0.00
2022-12-25T00:35:48.193Z,0.00
2022-12-25T00:36:48.176Z,0.00
2022-12-25T00:37:48.181Z,0.00
2022-12-25T00:38:48.184Z,0.00
2022-12-25T00:39:48.144Z,0.00
2022-12-25T00:40:48.125Z,0.00
2022-12-25T00:41:48.144Z,0.00
2022-12-25T00:42:48.121Z,0.00
2022-12-25T00:43:48.194Z,0.00
2022-12-25T00:44:48.165Z,0.00
2022-12-25T00:45:48.229Z,0.00
2022-12-25T00:46:48.196Z,0.00
2022-12-25T00:47:48.083Z,0.00
2022-12-25T00:48:48.051Z,0.00
2022-12-25T00:49:48.053Z,0.00
2022-12-25T00:50:48.065Z,0.00
2022-12-25T00:51:48.039Z,0.00
2022-12-25T00:52:48.015Z,0.00
2022-12-25T00:53:48.008Z,0.00
2022-12-25T00:54:47.972Z,0.00
2022-12-25T00:55:47.987Z,0.00
2022-12-25T00:56:47.980Z,0.00
2022-12-25T00:57:47.958Z,0.00
2022-12-25T00:58:47.936Z,0.00
2022-12-25T00:59:47.932Z,0.00
2022-12-25T01:00:48.003Z,0.00
2022-12-25T01:01:48.182Z,0.00
2022-12-25T01:02:48.019Z,0.00
2022-12-25T01:03:47.902Z,0.00
2022-12-25T01:04:47.878Z,0.00
2022-12-25T01:05:47.880Z,0.00
2022-12-25T01:06:47.850Z,0.00
2022-12-25T01:07:47.868Z,0.00
2022-12-25T01:08:47.839Z,0.00
2022-12-25T01:09:47.836Z,0.00
2022-12-25T01:10:47.810Z,0.00
2022-12-25T01:11:47.814Z,0.00
2022-12-25T01:12:47.790Z,0.00
2022-12-25T01:13:47.806Z,0.00
2022-12-25T01:14:47.790Z,0.00
2022-12-25T01:15:47.755Z,0.00
2022-12-25T01:16:47.792Z,0.00
2022-12-25T01:17:47.769Z,0.00
2022-12-25T01:18:47.736Z,0.00
2022-12-25T01:19:47.791Z,0.00
2022-12-25T01:20:47.744Z,0.00
2022-12-25T01:21:47.701Z,0.00
2022-12-25T01:22:47.667Z,0.00
2022-12-25T01:23:47.691Z,0.00
2022-12-25T01:24:47.659Z,0.00
2022-12-25T01:25:47.657Z,0.00
2022-12-25T01:26:47.650Z,0.00
2022-12-25T01:27:47.628Z,0.00
2022-12-25T01:28:47.614Z,0.00
2022-12-25T01:29:47.633Z,0.00
2022-12-25T01:30:47.595Z,0.00
2022-12-25T01:31:47.622Z,0.00
2022-12-25T01:32:47.593Z,0.00
2022-12-25T01:33:47.591Z,0.00
2022-12-25T01:34:52.078Z,0.00
2022-12-25T01:35:47.563Z,0.00
2022-12-25T01:36:47.531Z,0.00
2022-12-25T01:37:47.563Z,0.00
2022-12-25T01:38:47.519Z,0.00
2022-12-25T01:39:47.503Z,0.00
2022-12-25T01:40:47.490Z,0.00
2022-12-25T01:41:47.490Z,0.00
2022-12-25T01:42:47.459Z,0.00
2022-12-25T01:43:47.503Z,0.00
2022-12-25T01:44:47.444Z,0.00
2022-12-25T01:45:47.561Z,0.00
2022-12-25T01:46:47.423Z,0.00
2022-12-25T01:47:47.417Z,0.00
2022-12-25T01:48:47.408Z,0.00
2022-12-25T01:49:47.419Z,0.00
2022-12-25T01:50:47.367Z,0.00
2022-12-25T01:51:47.380Z,0.00
2022-12-25T01:52:47.358Z,0.00
2022-12-25T01:53:47.356Z,0.00
2022-12-25T01:54:47.385Z,0.00
2022-12-25T01:55:47.354Z,0.00
2022-12-25T01:56:47.353Z,0.00
2022-12-25T01:57:47.308Z,0.00
2022-12-25T01:58:47.306Z,0.00
2022-12-25T01:59:47.286Z,0.00
2022-12-25T02:00:47.333Z,0.00
2022-12-25T02:01:47.415Z,0.00
2022-12-25T02:02:47.365Z,0.00
2022-12-25T02:03:47.238Z,0.00
2022-12-25T02:04:47.217Z,0.00
2022-12-25T02:05:47.225Z,0.00
2022-12-25T02:06:47.368Z,0.00
2022-12-25T02:07:47.211Z,0.00
2022-12-25T02:08:47.171Z,0.00
2022-12-25T02:09:47.175Z,0.00
2022-12-25T06:01:03.660Z,0.00
2022-12-25T06:02:04.732Z,0.00
2022-12-25T06:03:04.717Z,0.00
2022-12-25T06:04:08.543Z,0.00
2022-12-25T06:05:04.600Z,0.00
2022-12-25T06:06:04.617Z,0.00
2022-12-25T06:07:04.560Z,0.00
2022-12-25T06:08:04.569Z,0.00
2022-12-25T06:09:04.536Z,0.00
2022-12-25T06:10:04.585Z,0.00
2022-12-25T06:11:04.585Z,0.00
2022-12-25T06:12:04.525Z,0.00
2022-12-25T06:13:04.489Z,0.00
2022-12-25T06:14:04.507Z,0.00
2022-12-25T06:15:04.472Z,0.00
2022-12-25T06:16:04.510Z,0.00
2022-12-25T06:17:04.531Z,0.00
2022-12-25T06:18:04.461Z,0.00
2022-12-25T06:19:04.438Z,0.00
2022-12-25T06:20:04.460Z,0.00
2022-12-25T06:21:04.455Z,0.00
2022-12-25T06:22:04.462Z,0.00
2022-12-25T06:23:04.399Z,0.00
2022-12-25T06:24:04.530Z,0.00
2022-12-25T06:25:04.368Z,0.00
2022-12-25T06:26:04.371Z,0.00
2022-12-25T06:27:04.383Z,0.00
2022-12-25T06:28:04.341Z,0.00
2022-12-25T06:29:04.348Z,0.00
2022-12-25T06:30:04.341Z,0.00
2022-12-25T06:31:04.360Z,0.00
2022-12-25T06:32:04.452Z,0.00
2022-12-25T06:33:04.313Z,0.00
2022-12-25T06:34:04.291Z,0.00
2022-12-25T06:35:04.266Z,0.00
2022-12-25T06:36:04.252Z,0.00
2022-12-25T06:37:04.239Z,0.00
2022-12-25T06:38:04.244Z,0.00
2022-12-25T06:39:04.228Z,0.00
2022-12-25T06:40:04.225Z,0.00
2022-12-25T06:41:04.200Z,0.00
2022-12-25T06:42:04.209Z,0.00
2022-12-25T06:43:04.173Z,0.00
2022-12-25T06:44:04.205Z,0.00
2022-12-25T06:45:04.153Z,0.00
2022-12-25T06:46:04.271Z,0.00
2022-12-25T06:47:04.147Z,0.00
2022-12-25T06:48:04.123Z,0.00
2022-12-25T06:49:04.116Z,0.00
2022-12-25T06:50:04.146Z,0.00
2022-12-25T06:51:04.129Z,0.00
2022-12-25T06:52:04.282Z,0.00
2022-12-25T06:53:04.066Z,0.00
2022-12-25T06:54:04.295Z,0.00
2022-12-25T06:55:04.047Z,1.00
2022-12-25T06:56:04.045Z,0.00
2022-12-25T06:57:04.045Z,0.00
2022-12-25T06:58:03.978Z,1.00
2022-12-25T06:59:03.979Z,1.00
2022-12-25T07:00:03.963Z,1.00
2022-12-25T07:01:04.032Z,1.00
2022-12-25T07:02:04.017Z,2.00
2022-12-25T07:03:04.046Z,2.00
2022-12-25T07:04:03.926Z,2.00
2022-12-25T07:05:03.882Z,1.00
2022-12-25T07:06:03.892Z,2.00
2022-12-25T07:07:08.703Z,2.00
2022-12-25T07:08:03.869Z,5.00
2022-12-25T07:09:03.863Z,6.00
2022-12-25T07:10:03.843Z,4.00
2022-12-25T07:11:03.819Z,5.00
2022-12-25T07:12:03.835Z,8.00
2022-12-25T07:13:03.828Z,8.00
2022-12-25T07:14:03.805Z,10.00
2022-12-25T07:15:03.796Z,11.00
2022-12-25T07:16:03.866Z,11.00
2022-12-25T07:17:03.755Z,12.00
2022-12-25T07:18:03.759Z,14.00
2022-12-25T07:19:03.725Z,12.00
2022-12-25T07:20:03.756Z,12.00
2022-12-25T07:21:03.716Z,19.00
2022-12-25T07:22:03.718Z,20.00
2022-12-25T07:23:03.701Z,20.00
2022-12-25T07:24:03.699Z,20.00
2022-12-25T07:25:03.661Z,21.00
2022-12-25T07:26:03.698Z,21.00
2022-12-25T07:27:03.683Z,22.00
2022-12-25T07:28:03.711Z,24.00
2022-12-25T07:29:03.670Z,26.00
2022-12-25T07:30:03.644Z,25.00
2022-12-25T07:31:03.595Z,25.00
2022-12-25T07:32:03.705Z,25.00
2022-12-25T07:33:03.576Z,25.00
2022-12-25T07:34:03.597Z,25.00
2022-12-25T07:35:03.565Z,27.00
2022-12-25T07:36:03.558Z,31.00
2022-12-25T07:37:03.533Z,30.00
2022-12-25T07:38:03.560Z,38.00
2022-12-25T07:39:03.530Z,49.00
2022-12-25T07:40:03.529Z,51.00
2022-12-25T07:41:03.504Z,54.00
2022-12-25T07:42:03.505Z,56.00
2022-12-25T07:43:03.479Z,67.00
2022-12-25T07:44:03.469Z,73.00
2022-12-25T07:45:03.484Z,72.00
2022-12-25T07:46:03.579Z,76.00
2022-12-25T07:47:03.439Z,99.00
2022-12-25T07:48:05.800Z,108.00
2022-12-25T07:49:03.422Z,116.00
2022-12-25T07:50:03.421Z,119.00
2022-12-25T07:51:03.412Z,109.00
2022-12-25T07:52:03.406Z,120.00
2022-12-25T07:53:03.366Z,120.00
2022-12-25T07:54:03.372Z,114.00
2022-12-25T07:55:03.376Z,107.00
2022-12-25T07:56:03.348Z,99.00
2022-12-25T07:57:03.367Z,97.00
2022-12-25T07:58:03.324Z,90.00
2022-12-25T07:59:03.296Z,84.00
2022-12-25T08:00:03.298Z,91.00
2022-12-25T08:01:03.384Z,129.00
2022-12-25T08:02:03.520Z,144.00
2022-12-25T08:03:03.517Z,158.00
2022-12-25T08:04:03.344Z,179.00
2022-12-25T08:05:03.243Z,212.00
2022-12-25T08:06:03.212Z,224.00
2022-12-25T08:07:03.239Z,216.00
2022-12-25T08:08:03.200Z,232.00
2022-12-25T08:09:03.209Z,243.00
2022-12-25T08:10:03.218Z,225.00
2022-12-25T08:11:03.183Z,212.00
2022-12-25T08:12:03.176Z,235.00
2022-12-25T08:13:06.492Z,229.00
2022-12-25T08:14:03.154Z,254.00
2022-12-25T08:15:03.144Z,265.00
2022-12-25T08:16:03.114Z,265.00
2022-12-25T08:17:03.214Z,269.00
2022-12-25T08:18:03.091Z,289.00
2022-12-25T08:19:03.128Z,291.00
2022-12-25T08:20:03.103Z,294.00
2022-12-25T08:21:03.083Z,300.00
2022-12-25T08:22:03.052Z,353.00
2022-12-25T08:23:03.066Z,326.00
2022-12-25T08:24:03.047Z,331.00
2022-12-25T08:25:03.045Z,341.00
2022-12-25T08:26:05.305Z,352.00
2022-12-25T08:27:03.011Z,333.00
2022-12-25T08:28:02.989Z,338.00
2022-12-25T08:29:02.986Z,403.00
2022-12-25T08:30:03.005Z,421.00
2022-12-25T08:31:03.030Z,352.00
2022-12-25T08:32:02.942Z,314.00
2022-12-25T08:33:02.950Z,349.00
2022-12-25T08:34:02.983Z,295.00
2022-12-25T08:35:02.936Z,426.00
2022-12-25T08:36:02.913Z,356.00
2022-12-25T08:37:02.922Z,343.00
2022-12-25T08:38:02.890Z,327.00
2022-12-25T08:39:03.589Z,301.00
2022-12-25T08:40:02.859Z,279.00
2022-12-25T08:41:02.878Z,260.00
2022-12-25T08:42:02.840Z,240.00
2022-12-25T08:43:02.850Z,207.00
2022-12-25T08:44:02.803Z,189.00
2022-12-25T08:45:02.832Z,197.00
2022-12-25T08:46:02.876Z,216.00
2022-12-25T08:47:02.807Z,222.00
2022-12-25T08:48:02.799Z,229.00
2022-12-25T08:49:02.780Z,233.00
2022-12-25T08:50:02.756Z,244.00
2022-12-25T08:51:02.756Z,245.00
2022-12-25T08:52:02.718Z,240.00
2022-12-25T08:53:02.729Z,229.00
2022-12-25T08:54:02.715Z,224.00
2022-12-25T08:55:02.701Z,220.00
2022-12-25T08:56:02.821Z,210.00
2022-12-25T08:57:03.246Z,192.00
2022-12-25T08:58:02.658Z,182.00
2022-12-25T08:59:02.718Z,191.00
2022-12-25T09:00:02.640Z,209.00
2022-12-25T09:01:02.715Z,215.00
2022-12-25T09:02:02.759Z,221.00
2022-12-25T09:03:02.858Z,226.00
2022-12-25T09:04:02.592Z,224.00
2022-12-25T09:05:02.619Z,228.00
2022-12-25T09:06:02.758Z,232.00
2022-12-25T09:07:02.602Z,243.00
2022-12-25T09:08:02.557Z,264.00
2022-12-25T09:09:02.583Z,259.00
2022-12-25T09:10:02.522Z,259.00
2022-12-25T09:11:02.543Z,236.00
2022-12-25T09:12:02.503Z,221.00
2022-12-25T09:13:02.524Z,215.00
2022-12-25T09:14:02.492Z,227.00
2022-12-25T09:15:02.487Z,288.00
2022-12-25T09:16:02.505Z,299.00
2022-12-25T09:17:02.487Z,268.00
2022-12-25T09:18:02.457Z,259.00
2022-12-25T09:19:02.467Z,250.00
2022-12-25T09:20:02.426Z,229.00
2022-12-25T09:21:02.418Z,223.00
2022-12-25T09:22:02.401Z,209.00
2022-12-25T09:23:02.413Z,190.00
2022-12-25T09:24:02.373Z,170.00
2022-12-25T09:25:02.414Z,161.00
2022-12-25T09:26:02.411Z,198.00
2022-12-25T09:27:02.358Z,243.00
2022-12-25T09:28:02.330Z,274.00
2022-12-25T09:29:02.365Z,289.00
2022-12-25T09:30:02.305Z,285.00
2022-12-25T09:31:02.375Z,343.00
2022-12-25T09:32:02.321Z,479.00
2022-12-25T09:33:02.293Z,492.00
2022-12-25T09:34:02.264Z,401.00
2022-12-25T09:35:02.302Z,323.00
2022-12-25T09:36:02.267Z,320.00
2022-12-25T09:37:02.264Z,310.00
2022-12-25T09:38:02.221Z,264.00
2022-12-25T09:39:02.241Z,262.00
2022-12-25T09:40:02.241Z,280.00
2022-12-25T09:41:02.261Z,270.00
2022-12-25T09:42:02.227Z,248.00
2022-12-25T09:43:02.204Z,231.00
2022-12-25T09:44:02.163Z,251.00
2022-12-25T09:45:02.172Z,284.00
2022-12-25T09:46:02.210Z,280.00
2022-12-25T09:47:02.227Z,257.00
2022-12-25T09:48:02.116Z,244.00
2022-12-25T09:49:02.140Z,220.00
2022-12-25T09:50:02.093Z,210.00
2022-12-25T09:51:02.154Z,238.00
2022-12-25T09:52:02.072Z,287.00
2022-12-25T09:53:02.105Z,309.00
2022-12-25T09:54:02.086Z,333.00
2022-12-25T09:55:02.055Z,366.00
2022-12-25T09:56:02.025Z,353.00
2022-12-25T09:57:02.060Z,373.00
2022-12-25T09:58:02.018Z,388.00
2022-12-25T09:59:02.017Z,518.00
2022-12-25T10:00:01.984Z,516.00
2022-12-25T10:01:01.993Z,392.00
2022-12-25T10:02:02.116Z,464.00
2022-12-25T10:03:02.328Z,591.00
2022-12-25T10:04:01.961Z,495.00
2022-12-25T10:05:01.942Z,463.00
2022-12-25T10:06:01.935Z,523.00
2022-12-25T10:07:01.921Z,488.00
2022-12-25T10:08:01.901Z,422.00
2022-12-25T10:09:01.933Z,450.00
2022-12-25T10:10:01.897Z,762.00
2022-12-25T10:11:01.884Z,953.00
2022-12-25T10:12:01.875Z,1200.00
2022-12-25T10:13:01.853Z,1123.00
2022-12-25T10:14:01.838Z,1170.00
2022-12-25T10:15:01.840Z,1129.00
2022-12-25T10:16:01.842Z,1064.00
2022-12-25T10:17:01.856Z,1024.00
2022-12-25T10:18:01.795Z,1039.00
2022-12-25T10:19:01.802Z,1169.00
2022-12-25T10:20:01.833Z,1276.00
2022-12-25T10:21:01.785Z,1419.00
2022-12-25T10:22:01.785Z,1290.00
2022-12-25T10:23:01.808Z,1048.00
2022-12-25T10:24:01.735Z,1046.00
2022-12-25T10:25:01.730Z,1181.00
2022-12-25T10:26:01.738Z,1156.00
2022-12-25T10:27:01.720Z,1106.00
2022-12-25T10:28:01.721Z,1217.00
2022-12-25T10:29:01.701Z,1277.00
2022-12-25T10:30:01.659Z,1221.00
2022-12-25T10:31:01.749Z,1142.00
2022-12-25T10:32:01.651Z,1177.00
2022-12-25T10:33:01.685Z,1181.00
2022-12-25T10:34:01.623Z,1189.00
2022-12-25T10:35:01.638Z,1260.00
2022-12-25T10:36:01.617Z,1304.00
2022-12-25T10:37:01.611Z,1234.00
2022-12-25T10:38:01.618Z,1038.00
2022-12-25T10:39:01.598Z,886.00
2022-12-25T10:40:01.565Z,809.00
2022-12-25T10:41:01.576Z,790.00
2022-12-25T10:42:01.530Z,659.00
2022-12-25T10:43:01.645Z,800.00
2022-12-25T10:44:01.557Z,971.00
2022-12-25T10:45:01.526Z,974.00
2022-12-25T10:46:01.701Z,1073.00
2022-12-25T10:47:01.539Z,1026.00
2022-12-25T10:48:06.784Z,885.00
2022-12-25T10:49:01.555Z,866.00
2022-12-25T10:50:01.477Z,950.00
2022-12-25T10:51:01.474Z,968.00
2022-12-25T10:52:01.448Z,817.00
2022-12-25T10:53:01.463Z,827.00
2022-12-25T10:54:01.411Z,884.00
2022-12-25T10:55:01.402Z,1135.00
2022-12-25T10:56:01.393Z,1225.00
2022-12-25T10:57:01.392Z,1160.00
2022-12-25T10:58:01.357Z,1101.00
2022-12-25T10:59:01.384Z,1132.00
2022-12-25T11:00:01.349Z,1163.00
2022-12-25T11:01:01.369Z,1228.00
2022-12-25T11:02:01.415Z,1089.00
2022-12-25T11:03:01.737Z,1011.00
2022-12-25T11:04:01.424Z,957.00
2022-12-25T11:05:01.307Z,1056.00
2022-12-25T11:06:01.292Z,1084.00
2022-12-25T11:07:01.273Z,1274.00
2022-12-25T11:08:01.280Z,1363.00
2022-12-25T11:09:01.256Z,1333.00
2022-12-25T11:10:05.381Z,1569.00
2022-12-25T11:11:01.265Z,1280.00
2022-12-25T11:12:01.230Z,1256.00
2022-12-25T11:13:01.224Z,1315.00
2022-12-25T11:14:01.243Z,1064.00
2022-12-25T11:15:01.188Z,802.00
2022-12-25T11:16:01.264Z,770.00
2022-12-25T11:17:01.187Z,1073.00
2022-12-25T11:18:01.138Z,1064.00
2022-12-25T11:19:01.192Z,1021.00
2022-12-25T11:20:01.197Z,1071.00
2022-12-25T11:21:01.139Z,1168.00
2022-12-25T11:22:01.111Z,1159.00
2022-12-25T11:23:01.137Z,1124.00
2022-12-25T11:24:01.068Z,1072.00
2022-12-25T11:25:01.081Z,1014.00
2022-12-25T11:26:01.155Z,949.00
2022-12-25T11:27:01.074Z,986.00
2022-12-25T11:28:01.037Z,968.00
2022-12-25T11:29:01.036Z,995.00
2022-12-25T11:30:01.012Z,943.00
2022-12-25T11:31:01.083Z,911.00
2022-12-25T11:32:01.018Z,883.00
2022-12-25T11:33:00.991Z,764.00
2022-12-25T11:34:01.043Z,915.00
2022-12-25T11:35:00.968Z,1094.00
2022-12-25T11:36:00.967Z,1099.00
2022-12-25T11:37:00.964Z,885.00
2022-12-25T11:38:01.009Z,896.00
2022-12-25T11:39:00.954Z,915.00
2022-12-25T11:40:00.892Z,908.00
2022-12-25T11:41:00.932Z,959.00
2022-12-25T11:42:00.872Z,1135.00
2022-12-25T11:43:07.697Z,1190.00
2022-12-25T11:44:00.877Z,1231.00
2022-12-25T11:45:00.865Z,1223.00
2022-12-25T11:46:00.909Z,1145.00
2022-12-25T11:47:00.897Z,1074.00
2022-12-25T11:48:00.835Z,1078.00
2022-12-25T11:49:00.825Z,1059.00
2022-12-25T11:50:01.280Z,970.00
2022-12-25T11:51:00.806Z,898.00
2022-12-25T11:52:00.781Z,838.00
2022-12-25T11:53:00.819Z,787.00
2022-12-25T11:54:00.766Z,759.00
2022-12-25T11:55:00.751Z,756.00
2022-12-25T11:56:00.760Z,821.00
2022-12-25T11:57:00.738Z,857.00
2022-12-25T11:58:00.726Z,877.00
2022-12-25T11:59:00.707Z,838.00
2022-12-25T12:00:00.689Z,997.00
2022-12-25T12:01:00.694Z,850.00
2022-12-25T12:02:00.809Z,806.00
2022-12-25T12:03:00.812Z,947.00
2022-12-25T12:04:00.796Z,1002.00
2022-12-25T12:05:00.679Z,1070.00
2022-12-25T12:06:00.617Z,1219.00
2022-12-25T12:07:00.695Z,1258.00
2022-12-25T12:08:00.646Z,1144.00
2022-12-25T12:09:00.598Z,1069.00
2022-12-25T12:10:00.570Z,1158.00
2022-12-25T12:11:00.580Z,1163.00
2022-12-25T12:12:00.556Z,1103.00
2022-12-25T12:13:00.592Z,1187.00
2022-12-25T12:14:00.526Z,1176.00
2022-12-25T12:15:00.540Z,1244.00
2022-12-25T12:16:00.603Z,1163.00
2022-12-25T12:17:00.568Z,1042.00
2022-12-25T12:18:00.525Z,1067.00
2022-12-25T12:19:00.476Z,1224.00
2022-12-25T12:20:00.474Z,1274.00
2022-12-25T12:21:00.464Z,1189.00
2022-12-25T12:22:00.455Z,1145.00
2022-12-25T12:23:00.471Z,1194.00
2022-12-25T12:24:00.469Z,1120.00
2022-12-25T12:25:00.407Z,1073.00
2022-12-25T12:26:00.417Z,1190.00
2022-12-25T12:27:00.381Z,1251.00
2022-12-25T12:28:05.368Z,1236.00
2022-12-25T12:29:00.432Z,1217.00
2022-12-25T12:30:00.366Z,1055.00
2022-12-25T12:31:00.339Z,1046.00
2022-12-25T12:32:00.407Z,956.00
2022-12-25T12:33:00.330Z,979.00
2022-12-25T12:34:00.370Z,956.00
2022-12-25T12:35:00.297Z,981.00
2022-12-25T12:36:00.382Z,1057.00
2022-12-25T12:37:00.276Z,1056.00
2022-12-25T12:38:00.303Z,1067.00
2022-12-25T12:39:00.254Z,1078.00
2022-12-25T12:40:00.272Z,985.00
2022-12-25T12:41:00.235Z,1030.00
2022-12-25T12:42:00.259Z,1105.00
2022-12-25T12:43:00.216Z,1122.00
2022-12-25T12:44:00.208Z,1081.00
2022-12-25T12:45:00.191Z,1024.00
2022-12-25T12:46:00.234Z,1047.00
2022-12-25T12:47:00.173Z,1096.00
2022-12-25T12:48:00.207Z,1100.00
2022-12-25T12:49:00.173Z,1224.00
2022-12-25T12:50:00.270Z,1117.00
2022-12-25T12:51:00.126Z,983.00
2022-12-25T12:52:00.129Z,1040.00
2022-12-25T12:53:00.138Z,1117.00
2022-12-25T12:54:00.115Z,1146.00
2022-12-25T12:55:00.126Z,1160.00
2022-12-25T12:56:00.107Z,1076.00
2022-12-25T12:57:00.099Z,958.00
2022-12-25T12:58:00.132Z,933.00
2022-12-25T12:59:00.072Z,1058.00
2022-12-25T13:00:06.590Z,958.00
2022-12-25T13:01:00.200Z,1081.00
2022-12-25T13:02:00.277Z,1023.00
2022-12-25T13:03:00.181Z,982.00
2022-12-25T13:03:59.997Z,1021.00
2022-12-25T13:04:59.996Z,946.00
2022-12-25T13:05:59.976Z,905.00
2022-12-25T13:06:59.952Z,883.00
2022-12-25T13:07:59.946Z,959.00
2022-12-25T13:08:59.932Z,832.00
2022-12-25T13:09:59.941Z,802.00
2022-12-25T13:10:59.928Z,829.00
2022-12-25T13:11:59.913Z,794.00
2022-12-25T13:12:59.884Z,803.00
2022-12-25T13:13:59.887Z,826.00
2022-12-25T13:14:59.884Z,846.00
2022-12-25T13:15:59.864Z,915.00
2022-12-25T13:16:59.896Z,878.00
2022-12-25T13:17:59.849Z,807.00
2022-12-25T13:18:59.826Z,833.00
2022-12-25T13:19:59.834Z,794.00
2022-12-25T13:20:59.791Z,818.00
2022-12-25T13:21:59.845Z,824.00
2022-12-25T13:22:59.782Z,777.00
2022-12-25T13:23:59.800Z,780.00
2022-12-25T13:24:59.763Z,770.00
2022-12-25T13:25:59.770Z,726.00
2022-12-25T13:26:59.787Z,702.00
2022-12-25T13:27:59.791Z,674.00
2022-12-25T13:28:59.722Z,649.00
2022-12-25T13:29:59.735Z,662.00
2022-12-25T13:30:59.686Z,558.00
2022-12-25T13:31:59.786Z,597.00
2022-12-25T13:32:59.836Z,673.00
2022-12-25T13:33:59.697Z,644.00
2022-12-25T13:34:59.655Z,630.00
2022-12-25T13:35:59.651Z,638.00
2022-12-25T13:36:59.617Z,581.00
2022-12-25T13:37:59.658Z,609.00
2022-12-25T13:38:59.627Z,599.00
2022-12-25T13:39:59.605Z,583.00
2022-12-25T13:40:59.583Z,580.00
2022-12-25T13:41:59.580Z,588.00
2022-12-25T13:42:59.560Z,545.00
2022-12-25T13:43:59.561Z,517.00
2022-12-25T13:44:59.577Z,550.00
2022-12-25T13:45:59.632Z,554.00
2022-12-25T13:46:59.552Z,549.00
2022-12-25T13:47:59.517Z,551.00
2022-12-25T13:48:59.495Z,563.00
2022-12-25T13:49:59.502Z,589.00
2022-12-25T13:50:59.490Z,570.00
2022-12-25T13:51:59.482Z,545.00
2022-12-25T13:52:59.467Z,534.00
2022-12-25T13:53:59.474Z,562.00
2022-12-25T13:54:59.432Z,531.00
2022-12-25T13:55:59.433Z,470.00
2022-12-25T13:56:59.412Z,411.00
2022-12-25T13:57:59.404Z,369.00
2022-12-25T13:58:59.393Z,337.00
2022-12-25T13:59:59.418Z,311.00
2022-12-25T14:00:59.414Z,308.00
2022-12-25T14:01:59.612Z,302.00
2022-12-25T14:02:59.527Z,315.00
2022-12-25T14:03:59.373Z,264.00
2022-12-25T14:04:59.327Z,285.00
2022-12-25T14:05:59.380Z,251.00
2022-12-25T14:06:59.310Z,287.00
2022-12-25T14:07:59.327Z,287.00
2022-12-25T14:08:59.310Z,275.00
2022-12-25T14:09:59.300Z,334.00
2022-12-25T14:10:59.253Z,352.00
2022-12-25T14:11:59.265Z,338.00
2022-12-25T14:12:59.230Z,349.00
2022-12-25T14:13:59.251Z,349.00
2022-12-25T14:14:59.223Z,322.00
2022-12-25T14:15:59.214Z,322.00
2022-12-25T14:16:59.378Z,304.00
2022-12-25T14:17:59.189Z,264.00
2022-12-25T14:18:59.171Z,248.00
2022-12-25T14:20:04.012Z,314.00
2022-12-25T14:20:59.199Z,278.00
2022-12-25T14:21:59.184Z,374.00
2022-12-25T14:22:59.127Z,386.00
2022-12-25T14:23:59.147Z,386.00
2022-12-25T14:24:59.109Z,377.00
2022-12-25T14:25:59.122Z,318.00
2022-12-25T14:26:59.092Z,276.00
2022-12-25T14:27:59.083Z,222.00
2022-12-25T14:28:59.059Z,247.00
2022-12-25T14:29:59.071Z,268.00
2022-12-25T14:30:59.048Z,239.00
2022-12-25T14:31:59.083Z,244.00
2022-12-25T14:32:59.025Z,209.00
2022-12-25T14:33:59.028Z,173.00
2022-12-25T14:34:58.996Z,150.00
2022-12-25T14:35:58.999Z,142.00
2022-12-25T14:36:58.975Z,130.00
2022-12-25T14:37:59.013Z,114.00
2022-12-25T14:38:58.961Z,138.00
2022-12-25T14:39:58.976Z,138.00
2022-12-25T14:40:58.932Z,150.00
2022-12-25T14:41:58.932Z,184.00
2022-12-25T14:42:58.910Z,211.00
2022-12-25T14:43:58.932Z,207.00
2022-12-25T14:44:58.902Z,207.00
2022-12-25T14:45:58.930Z,169.00
2022-12-25T14:46:58.862Z,124.00
2022-12-25T14:47:58.906Z,122.00
2022-12-25T14:48:58.858Z,147.00
2022-12-25T14:49:58.851Z,143.00
2022-12-25T14:50:58.862Z,129.00
2022-12-25T14:51:58.828Z,107.00
2022-12-25T14:52:58.817Z,93.00
2022-12-25T14:53:58.822Z,94.00
2022-12-25T14:54:58.778Z,103.00
2022-12-25T14:55:58.785Z,91.00
2022-12-25T14:56:58.757Z,86.00
2022-12-25T14:57:58.769Z,78.00
2022-12-25T14:58:58.739Z,72.00
2022-12-25T14:59:58.732Z,64.00
2022-12-25T15:00:58.756Z,69.00
2022-12-25T15:01:58.962Z,71.00
2022-12-25T15:02:58.866Z,70.00
2022-12-25T15:03:58.772Z,64.00
2022-12-25T15:04:58.683Z,66.00
2022-12-25T15:05:58.758Z,72.00
2022-12-25T15:06:58.649Z,69.00
2022-12-25T15:07:58.656Z,72.00
2022-12-25T15:08:58.645Z,63.00
2022-12-25T15:10:25.580Z,45.00
2022-12-25T15:11:03.168Z,44.00
2022-12-25T15:11:58.621Z,35.00
2022-12-25T15:12:58.582Z,34.00
2022-12-25T15:13:58.590Z,34.00
2022-12-25T15:14:58.575Z,34.00
2022-12-25T15:15:58.627Z,35.00
2022-12-25T15:16:58.541Z,35.00
2022-12-25T15:17:58.538Z,32.00
2022-12-25T15:18:58.514Z,36.00
2022-12-25T15:19:58.530Z,35.00
2022-12-25T15:20:58.512Z,36.00
2022-12-25T15:21:58.517Z,37.00
2022-12-25T15:23:58.490Z,37.00
2022-12-25T15:25:01.783Z,38.00
2022-12-25T15:25:58.455Z,37.00
2022-12-25T15:26:58.429Z,30.00
2022-12-25T15:27:58.429Z,31.00
2022-12-25T15:28:58.426Z,27.00
2022-12-25T15:30:14.069Z,28.00
2022-12-25T15:30:58.447Z,24.00
2022-12-25T15:31:58.390Z,24.00
2022-12-25T15:32:58.370Z,20.00
2022-12-25T15:33:58.399Z,19.00
2022-12-25T15:34:58.354Z,14.00
2022-12-25T15:35:58.421Z,14.00
2022-12-25T15:36:58.341Z,15.00
2022-12-25T15:37:58.314Z,12.00
2022-12-25T15:38:58.297Z,12.00
2022-12-25T15:39:58.311Z,11.00
2022-12-25T15:40:58.289Z,10.00
2022-12-25T15:41:58.282Z,9.00
2022-12-25T15:42:58.255Z,7.00
2022-12-25T15:43:58.255Z,7.00
2022-12-25T15:44:58.232Z,6.00
2022-12-25T15:45:58.269Z,5.00
2022-12-25T15:46:58.213Z,5.00
2022-12-25T15:47:58.222Z,3.00
2022-12-25T15:48:58.193Z,1.00
2022-12-25T15:49:58.193Z,2.00
2022-12-25T15:50:58.169Z,2.00
2022-12-25T15:51:58.180Z,2.00
2022-12-25T15:52:58.141Z,2.00
2022-12-25T15:53:58.155Z,1.00
2022-12-25T15:54:58.123Z,2.00
2022-12-25T15:55:58.165Z,1.00
2022-12-25T15:56:58.108Z,1.00
2022-12-25T15:57:58.181Z,0.00
2022-12-25T15:58:58.152Z,0.00
2022-12-25T15:59:58.137Z,0.00
2022-12-25T16:00:58.114Z,0.00
2022-12-25T16:01:58.250Z,0.00
2022-12-25T16:02:58.287Z,0.00
2022-12-25T16:03:58.165Z,0.00
2022-12-25T16:04:58.069Z,0.00
2022-12-25T16:05:58.080Z,0.00
2022-12-25T16:06:58.071Z,0.00
2022-12-25T16:07:58.080Z,0.00
2022-12-25T16:08:58.049Z,0.00
2022-12-25T16:09:58.057Z,0.00
2022-12-25T16:10:58.004Z,0.00
2022-12-25T16:11:58.003Z,0.00
2022-12-25T16:12:58.014Z,0.00
2022-12-25T16:13:57.990Z,0.00
2022-12-25T16:14:57.959Z,0.00
2022-12-25T16:15:58.072Z,0.00
2022-12-25T16:16:57.941Z,0.00
2022-12-25T16:17:57.941Z,0.00
2022-12-25T16:18:57.963Z,0.00
2022-12-25T16:19:57.942Z,0.00
2022-12-25T16:20:57.895Z,0.00
2022-12-25T16:21:57.895Z,0.00
2022-12-25T16:22:57.879Z,0.00
2022-12-25T16:23:57.881Z,0.00
2022-12-25T16:24:57.873Z,0.00
2022-12-25T16:25:57.870Z,0.00
2022-12-25T16:26:57.822Z,0.00
2022-12-25T16:27:57.861Z,0.00
2022-12-25T16:29:00.026Z,0.00
2022-12-25T16:29:57.812Z,0.00
2022-12-25T16:30:57.875Z,0.00
2022-12-25T16:31:57.789Z,0.00
2022-12-25T16:32:57.788Z,0.00
2022-12-25T16:33:57.758Z,0.00
2022-12-25T16:34:57.771Z,0.00